Главная страница
METAR-TAF:

METAR-TAF

Аэропорты :

Одесса, Украина

широта: 46-26N, долгота: 030-46E, высота над уровнем моря: 42 м

Текущие метеонаблюдения

Эта сводка был подготовлена 26 минут назад, в 13:00 UTC
Ветер 8 Узел от южный
Температура 20°C
Влажность 26%
Давление 1013 hPa
Видимость 10 км и более
Нет облачности ниже 1500 м, и нет кучево-дождевой облачности

METAR: UKOO 231300Z 18004MPS CAVOK 20/00 Q1013 R16/090060 NOSIG

Время: 16:26 (13:26 UTC)

Прогноз

Эта сводка был подготовлена 2 часа и 20 минут назад, в 11:06 UTC
Прогноз действительный с 23-го 12 UTC до 24-го 12 UTC
Ветер 12 Узел от южный с порывами до 23 Узел
Видимость: 6000 м
Отдельные облака на высоте 700 фута
Отдельные облака на высоте 2000 фута, Кучево-дождевые.
изменения
С 23-го 17 UTC до 23-го 18 UTC
Ветер 6 Узел от южный
Видимость: 2100 м
дымка

TAF: UKOO 231106Z 2312/2412 17006G12MPS 6000 SCT007 SCT020CB BECMG 2317/2318 19003MPS 2100 BR

Метеонаблюдения и прогнозы для более 4000 аэропортов (сводки METAR и TAF).

Имеющиеся станции представлены на карте желтыми и красными точками.

Чтобы увидеть название станции, наведите на нее мышь.

Затем щелкните, чтобы увидеть метеонаблюдения и метеопрогнозы.

Управление картой: чтобы увеличить масштаб, щелкните зеленые кнопки с черным крестиком; чтобы уменьшить масштаб, щелкните зеленую кнопку с тире; для просмотра соседних карт щелкайте зеленые стрелки.


METAR-TAF: